sensor_id;sensor_type;location;lat;lon;timestamp;pressure;altitude;pressure_sealevel;temperature;humidity
74960;BME280;63518;49.572;1.106;2023-08-30T00:01:12;99124.44;;;14.89;100.00
74960;BME280;63518;49.572;1.106;2023-08-30T00:03:39;99141.56;;;14.91;100.00
74960;BME280;63518;49.572;1.106;2023-08-30T00:06:07;99138.66;;;15.22;100.00
74960;BME280;63518;49.572;1.106;2023-08-30T00:08:35;99074.31;;;14.51;100.00
74960;BME280;63518;49.572;1.106;2023-08-30T00:11:02;99074.31;;;14.51;100.00
74960;BME280;63518;49.572;1.106;2023-08-30T00:13:31;99108.44;;;14.69;100.00
74960;BME280;63518;49.572;1.106;2023-08-30T00:16:00;99116.28;;;14.76;100.00
74960;BME280;63518;49.572;1.106;2023-08-30T00:18:30;99139.94;;;14.82;100.00
74960;BME280;63518;49.572;1.106;2023-08-30T00:20:58;99135.19;;;14.91;100.00
74960;BME280;63518;49.572;1.106;2023-08-30T00:23:25;99054.44;;;14.40;100.00
74960;BME280;63518;49.572;1.106;2023-08-30T00:25:52;99089.34;;;14.50;100.00
74960;BME280;63518;49.572;1.106;2023-08-30T00:28:19;99095.88;;;14.63;100.00
74960;BME280;63518;49.572;1.106;2023-08-30T00:30:46;99088.53;;;14.58;100.00
74960;BME280;63518;49.572;1.106;2023-08-30T00:33:13;99111.06;;;14.74;100.00
74960;BME280;63518;49.572;1.106;2023-08-30T00:35:40;99121.66;;;14.98;100.00
74960;BME280;63518;49.572;1.106;2023-08-30T00:38:07;99068.09;;;14.37;100.00
74960;BME280;63518;49.572;1.106;2023-08-30T00:40:39;99090.00;;;14.64;100.00
74960;BME280;63518;49.572;1.106;2023-08-30T00:43:07;99078.72;;;14.61;100.00
74960;BME280;63518;49.572;1.106;2023-08-30T00:45:35;99060.13;;;14.53;100.00
74960;BME280;63518;49.572;1.106;2023-08-30T00:48:05;99053.13;;;14.55;100.00
74960;BME280;63518;49.572;1.106;2023-08-30T00:50:34;99024.84;;;14.01;100.00
74960;BME280;63518;49.572;1.106;2023-08-30T00:53:01;99088.38;;;14.46;100.00
74960;BME280;63518;49.572;1.106;2023-08-30T00:55:36;99063.56;;;14.41;100.00
74960;BME280;63518;49.572;1.106;2023-08-30T00:58:04;99101.75;;;14.79;100.00
74960;BME280;63518;49.572;1.106;2023-08-30T01:00:33;99093.41;;;14.44;100.00
74960;BME280;63518;49.572;1.106;2023-08-30T01:03:00;99094.88;;;14.76;100.00
74960;BME280;63518;49.572;1.106;2023-08-30T01:05:28;99105.69;;;14.78;100.00
74960;BME280;63518;49.572;1.106;2023-08-30T01:07:55;99020.75;;;13.99;100.00
74960;BME280;63518;49.572;1.106;2023-08-30T01:10:38;99082.97;;;14.58;100.00
74960;BME280;63518;49.572;1.106;2023-08-30T01:13:09;99045.78;;;14.42;100.00
74960;BME280;63518;49.572;1.106;2023-08-30T01:15:40;99078.56;;;14.75;100.00
74960;BME280;63518;49.572;1.106;2023-08-30T01:18:09;99028.00;;;14.34;100.00
74960;BME280;63518;49.572;1.106;2023-08-30T01:20:39;99059.00;;;14.80;100.00
74960;BME280;63518;49.572;1.106;2023-08-30T01:26:40;99063.56;;;14.67;100.00
74960;BME280;63518;49.572;1.106;2023-08-30T01:29:12;99078.25;;;14.85;100.00
74960;BME280;63518;49.572;1.106;2023-08-30T01:31:41;98998.59;;;14.07;100.00
74960;BME280;63518;49.572;1.106;2023-08-30T01:34:09;99019.53;;;14.39;100.00
74960;BME280;63518;49.572;1.106;2023-08-30T01:36:37;99016.09;;;14.34;100.00
74960;BME280;63518;49.572;1.106;2023-08-30T01:39:04;99040.09;;;14.47;100.00
74960;BME280;63518;49.572;1.106;2023-08-30T01:41:33;99055.09;;;14.63;100.00
74960;BME280;63518;49.572;1.106;2023-08-30T01:44:03;99040.22;;;14.42;100.00
74960;BME280;63518;49.572;1.106;2023-08-30T01:46:33;99026.38;;;14.33;100.00
74960;BME280;63518;49.572;1.106;2023-08-30T01:49:03;98981.69;;;14.35;100.00
74960;BME280;63518;49.572;1.106;2023-08-30T01:51:31;99060.78;;;14.67;100.00
74960;BME280;63518;49.572;1.106;2023-08-30T01:54:00;99007.63;;;14.39;100.00
74960;BME280;63518;49.572;1.106;2023-08-30T01:56:29;99044.94;;;14.76;100.00
74960;BME280;63518;49.572;1.106;2023-08-30T01:58:56;98963.75;;;14.41;100.00
74960;BME280;63518;49.572;1.106;2023-08-30T02:01:23;99027.03;;;14.56;100.00
74960;BME280;63518;49.572;1.106;2023-08-30T02:03:50;99031.44;;;14.49;100.00
74960;BME280;63518;49.572;1.106;2023-08-30T02:06:24;98995.72;;;14.38;100.00
74960;BME280;63518;49.572;1.106;2023-08-30T02:09:04;99041.38;;;14.76;100.00
74960;BME280;63518;49.572;1.106;2023-08-30T02:11:37;99042.69;;;14.44;100.00
74960;BME280;63518;49.572;1.106;2023-08-30T02:14:05;99014.94;;;14.44;100.00
74960;BME280;63518;49.572;1.106;2023-08-30T02:16:37;98973.34;;;14.09;100.00
74960;BME280;63518;49.572;1.106;2023-08-30T02:19:06;98991.00;;;14.48;100.00
74960;BME280;63518;49.572;1.106;2023-08-30T02:21:34;99002.91;;;14.48;100.00
74960;BME280;63518;49.572;1.106;2023-08-30T02:24:02;99026.22;;;14.56;100.00
74960;BME280;63518;49.572;1.106;2023-08-30T02:26:29;99032.56;;;14.65;100.00
74960;BME280;63518;49.572;1.106;2023-08-30T02:28:56;98931.78;;;14.18;100.00
74960;BME280;63518;49.572;1.106;2023-08-30T02:31:23;99017.41;;;14.62;100.00
74960;BME280;63518;49.572;1.106;2023-08-30T02:33:50;99028.16;;;14.73;100.00
74960;BME280;63518;49.572;1.106;2023-08-30T02:36:17;98968.97;;;14.17;100.00
74960;BME280;63518;49.572;1.106;2023-08-30T02:38:44;98994.06;;;14.63;100.00
74960;BME280;63518;49.572;1.106;2023-08-30T02:41:11;98945.19;;;14.16;100.00
74960;BME280;63518;49.572;1.106;2023-08-30T02:43:39;98990.50;;;14.54;100.00
74960;BME280;63518;49.572;1.106;2023-08-30T02:46:06;98954.63;;;14.40;100.00
74960;BME280;63518;49.572;1.106;2023-08-30T02:48:33;98999.31;;;14.56;100.00
74960;BME280;63518;49.572;1.106;2023-08-30T02:51:00;98996.00;;;14.80;100.00
74960;BME280;63518;49.572;1.106;2023-08-30T02:53:27;98998.59;;;14.77;100.00
74960;BME280;63518;49.572;1.106;2023-08-30T02:55:54;99004.66;;;14.87;100.00
74960;BME280;63518;49.572;1.106;2023-08-30T02:58:22;98971.38;;;14.61;100.00
74960;BME280;63518;49.572;1.106;2023-08-30T03:00:50;98967.28;;;14.67;100.00
74960;BME280;63518;49.572;1.106;2023-08-30T03:03:18;98980.72;;;14.48;100.00
74960;BME280;63518;49.572;1.106;2023-08-30T03:05:44;98974.19;;;14.44;100.00
74960;BME280;63518;49.572;1.106;2023-08-30T03:08:13;98944.50;;;14.27;100.00
74960;BME280;63518;49.572;1.106;2023-08-30T03:10:40;98965.38;;;14.42;100.00
74960;BME280;63518;49.572;1.106;2023-08-30T03:13:07;98910.56;;;14.04;100.00
74960;BME280;63518;49.572;1.106;2023-08-30T03:15:35;98949.09;;;14.15;100.00
74960;BME280;63518;49.572;1.106;2023-08-30T03:18:02;98994.69;;;14.69;100.00
74960;BME280;63518;49.572;1.106;2023-08-30T03:20:29;98990.97;;;14.56;100.00
74960;BME280;63518;49.572;1.106;2023-08-30T03:22:56;98941.72;;;14.27;100.00
74960;BME280;63518;49.572;1.106;2023-08-30T03:25:30;98948.56;;;14.21;100.00
74960;BME280;63518;49.572;1.106;2023-08-30T03:27:57;98970.44;;;14.40;100.00
74960;BME280;63518;49.572;1.106;2023-08-30T03:30:30;98916.59;;;13.98;100.00
74960;BME280;63518;49.572;1.106;2023-08-30T03:32:57;98981.19;;;14.16;100.00
74960;BME280;63518;49.572;1.106;2023-08-30T03:35:26;98945.50;;;14.14;100.00
74960;BME280;63518;49.572;1.106;2023-08-30T03:37:53;98975.19;;;14.22;100.00
74960;BME280;63518;49.572;1.106;2023-08-30T03:40:21;98941.59;;;14.15;100.00
74960;BME280;63518;49.572;1.106;2023-08-30T03:42:49;98983.97;;;14.50;100.00
74960;BME280;63518;49.572;1.106;2023-08-30T03:45:16;98938.81;;;14.24;100.00
74960;BME280;63518;49.572;1.106;2023-08-30T03:47:43;98999.63;;;14.46;100.00
74960;BME280;63518;49.572;1.106;2023-08-30T03:50:10;99004.84;;;14.48;100.00
74960;BME280;63518;49.572;1.106;2023-08-30T03:52:38;98976.13;;;14.44;100.00
74960;BME280;63518;49.572;1.106;2023-08-30T03:55:05;98967.34;;;14.16;100.00
74960;BME280;63518;49.572;1.106;2023-08-30T03:57:32;98921.16;;;13.76;100.00
74960;BME280;63518;49.572;1.106;2023-08-30T04:00:00;98977.75;;;14.36;100.00
74960;BME280;63518;49.572;1.106;2023-08-30T04:02:27;98966.53;;;14.24;100.00
74960;BME280;63518;49.572;1.106;2023-08-30T04:04:55;98998.81;;;14.63;100.00
74960;BME280;63518;49.572;1.106;2023-08-30T04:07:22;98984.75;;;14.77;100.00
74960;BME280;63518;49.572;1.106;2023-08-30T04:09:50;98998.66;;;14.33;100.00
74960;BME280;63518;49.572;1.106;2023-08-30T04:12:17;98940.22;;;13.95;100.00
74960;BME280;63518;49.572;1.106;2023-08-30T04:14:44;98921.03;;;14.25;100.00
74960;BME280;63518;49.572;1.106;2023-08-30T04:17:12;98968.78;;;14.56;100.00
74960;BME280;63518;49.572;1.106;2023-08-30T04:19:39;98993.59;;;14.44;100.00
74960;BME280;63518;49.572;1.106;2023-08-30T04:22:06;98965.72;;;14.23;100.00
74960;BME280;63518;49.572;1.106;2023-08-30T04:24:34;98981.03;;;14.12;100.00
74960;BME280;63518;49.572;1.106;2023-08-30T04:27:01;98972.72;;;14.21;100.00
74960;BME280;63518;49.572;1.106;2023-08-30T04:29:28;99000.75;;;14.28;100.00
74960;BME280;63518;49.572;1.106;2023-08-30T04:31:55;99002.44;;;13.80;100.00
74960;BME280;63518;49.572;1.106;2023-08-30T04:34:22;98983.06;;;13.80;100.00
74960;BME280;63518;49.572;1.106;2023-08-30T04:36:49;98997.78;;;14.07;100.00
74960;BME280;63518;49.572;1.106;2023-08-30T04:39:16;99006.81;;;13.73;100.00
74960;BME280;63518;49.572;1.106;2023-08-30T04:41:44;98998.19;;;13.74;100.00
74960;BME280;63518;49.572;1.106;2023-08-30T04:44:11;98991.69;;;13.79;100.00
74960;BME280;63518;49.572;1.106;2023-08-30T04:46:39;99018.03;;;14.16;100.00
74960;BME280;63518;49.572;1.106;2023-08-30T04:49:06;99008.91;;;14.24;100.00
74960;BME280;63518;49.572;1.106;2023-08-30T04:51:33;99010.16;;;13.92;100.00
74960;BME280;63518;49.572;1.106;2023-08-30T04:54:01;98993.25;;;14.20;100.00
74960;BME280;63518;49.572;1.106;2023-08-30T04:56:28;98997.03;;;14.15;100.00
74960;BME280;63518;49.572;1.106;2023-08-30T04:58:55;98985.34;;;13.87;100.00
74960;BME280;63518;49.572;1.106;2023-08-30T05:01:24;98935.16;;;13.80;100.00
74960;BME280;63518;49.572;1.106;2023-08-30T05:03:51;98969.06;;;13.77;100.00
74960;BME280;63518;49.572;1.106;2023-08-30T05:06:18;98911.91;;;13.24;100.00
74960;BME280;63518;49.572;1.106;2023-08-30T05:08:45;98954.88;;;13.70;100.00
74960;BME280;63518;49.572;1.106;2023-08-30T05:11:13;98967.25;;;13.81;100.00
74960;BME280;63518;49.572;1.106;2023-08-30T05:13:40;99009.75;;;14.33;100.00
74960;BME280;63518;49.572;1.106;2023-08-30T05:16:07;98958.13;;;13.80;100.00
74960;BME280;63518;49.572;1.106;2023-08-30T05:18:35;98964.53;;;13.98;100.00
74960;BME280;63518;49.572;1.106;2023-08-30T05:21:02;99005.16;;;14.29;100.00
74960;BME280;63518;49.572;1.106;2023-08-30T05:23:32;99011.53;;;14.55;100.00
74960;BME280;63518;49.572;1.106;2023-08-30T05:25:59;99024.91;;;14.36;100.00
74960;BME280;63518;49.572;1.106;2023-08-30T05:28:29;98960.19;;;14.23;100.00
74960;BME280;63518;49.572;1.106;2023-08-30T05:30:57;98956.09;;;14.12;100.00
74960;BME280;63518;49.572;1.106;2023-08-30T05:33:24;98980.88;;;14.43;100.00
74960;BME280;63518;49.572;1.106;2023-08-30T05:35:51;98961.78;;;14.07;100.00
74960;BME280;63518;49.572;1.106;2023-08-30T05:38:18;98949.50;;;13.82;100.00
74960;BME280;63518;49.572;1.106;2023-08-30T05:40:46;99009.69;;;13.99;100.00
74960;BME280;63518;49.572;1.106;2023-08-30T05:43:13;98958.59;;;13.65;100.00
74960;BME280;63518;49.572;1.106;2023-08-30T05:45:40;98972.53;;;13.43;100.00
74960;BME280;63518;49.572;1.106;2023-08-30T05:48:07;98912.50;;;13.04;100.00
74960;BME280;63518;49.572;1.106;2023-08-30T05:50:35;98935.03;;;13.19;100.00
74960;BME280;63518;49.572;1.106;2023-08-30T05:53:03;99010.72;;;13.63;100.00
74960;BME280;63518;49.572;1.106;2023-08-30T05:55:30;99010.81;;;13.49;100.00
74960;BME280;63518;49.572;1.106;2023-08-30T05:57:58;99025.66;;;13.53;100.00
74960;BME280;63518;49.572;1.106;2023-08-30T06:00:25;98983.00;;;13.54;100.00
74960;BME280;63518;49.572;1.106;2023-08-30T06:02:54;98990.16;;;13.55;100.00
74960;BME280;63518;49.572;1.106;2023-08-30T06:05:21;99023.34;;;13.47;100.00
74960;BME280;63518;49.572;1.106;2023-08-30T06:07:48;99022.00;;;13.75;100.00
74960;BME280;63518;49.572;1.106;2023-08-30T06:10:15;99025.72;;;13.71;100.00
74960;BME280;63518;49.572;1.106;2023-08-30T06:12:42;98999.91;;;13.44;100.00
74960;BME280;63518;49.572;1.106;2023-08-30T06:15:09;99021.94;;;13.58;100.00
74960;BME280;63518;49.572;1.106;2023-08-30T06:17:36;99028.44;;;13.53;100.00
74960;BME280;63518;49.572;1.106;2023-08-30T06:20:04;99033.81;;;13.58;100.00
74960;BME280;63518;49.572;1.106;2023-08-30T06:22:31;99009.06;;;13.53;100.00
74960;BME280;63518;49.572;1.106;2023-08-30T06:24:58;99016.56;;;13.22;100.00
74960;BME280;63518;49.572;1.106;2023-08-30T06:27:25;98945.38;;;12.83;100.00
74960;BME280;63518;49.572;1.106;2023-08-30T06:29:52;98923.19;;;12.43;100.00
74960;BME280;63518;49.572;1.106;2023-08-30T06:32:19;98995.84;;;13.50;100.00
74960;BME280;63518;49.572;1.106;2023-08-30T06:34:46;99010.22;;;13.61;100.00
74960;BME280;63518;49.572;1.106;2023-08-30T06:37:13;98940.16;;;13.04;100.00
74960;BME280;63518;49.572;1.106;2023-08-30T06:39:40;99003.13;;;13.38;100.00
74960;BME280;63518;49.572;1.106;2023-08-30T06:42:07;99013.53;;;13.32;100.00
74960;BME280;63518;49.572;1.106;2023-08-30T06:44:34;98948.59;;;12.76;100.00
74960;BME280;63518;49.572;1.106;2023-08-30T06:47:01;98983.78;;;13.07;100.00
74960;BME280;63518;49.572;1.106;2023-08-30T06:49:29;99022.84;;;13.36;100.00
74960;BME280;63518;49.572;1.106;2023-08-30T06:51:58;99003.47;;;13.36;100.00
74960;BME280;63518;49.572;1.106;2023-08-30T06:54:26;99008.56;;;13.51;100.00
74960;BME280;63518;49.572;1.106;2023-08-30T06:57:02;98995.97;;;13.37;100.00
74960;BME280;63518;49.572;1.106;2023-08-30T06:59:29;99015.88;;;13.47;100.00
74960;BME280;63518;49.572;1.106;2023-08-30T07:01:56;99003.50;;;13.45;100.00
74960;BME280;63518;49.572;1.106;2023-08-30T07:04:23;99013.28;;;13.51;100.00
74960;BME280;63518;49.572;1.106;2023-08-30T07:06:51;98980.31;;;13.32;100.00
74960;BME280;63518;49.572;1.106;2023-08-30T07:09:18;99018.69;;;13.65;100.00
74960;BME280;63518;49.572;1.106;2023-08-30T07:11:48;99018.94;;;13.85;100.00
74960;BME280;63518;49.572;1.106;2023-08-30T07:14:15;98977.47;;;13.63;100.00
74960;BME280;63518;49.572;1.106;2023-08-30T07:16:42;98927.28;;;13.47;100.00
74960;BME280;63518;49.572;1.106;2023-08-30T07:19:09;98987.66;;;13.94;100.00
74960;BME280;63518;49.572;1.106;2023-08-30T07:21:36;99002.22;;;14.25;100.00
74960;BME280;63518;49.572;1.106;2023-08-30T07:24:06;98986.13;;;13.70;100.00
74960;BME280;63518;49.572;1.106;2023-08-30T07:26:34;99008.38;;;14.05;100.00
74960;BME280;63518;49.572;1.106;2023-08-30T07:29:01;98944.94;;;13.86;100.00
74960;BME280;63518;49.572;1.106;2023-08-30T07:31:28;98958.69;;;14.34;100.00
74960;BME280;63518;49.572;1.106;2023-08-30T07:33:56;98963.09;;;14.35;100.00
74960;BME280;63518;49.572;1.106;2023-08-30T07:36:25;98982.78;;;13.99;100.00
74960;BME280;63518;49.572;1.106;2023-08-30T07:39:12;99003.84;;;14.18;100.00
74960;BME280;63518;49.572;1.106;2023-08-30T07:41:39;98966.88;;;14.31;100.00
74960;BME280;63518;49.572;1.106;2023-08-30T07:44:06;98959.97;;;14.02;100.00
74960;BME280;63518;49.572;1.106;2023-08-30T07:46:33;99029.91;;;14.08;100.00
74960;BME280;63518;49.572;1.106;2023-08-30T07:49:00;98980.28;;;13.80;100.00
74960;BME280;63518;49.572;1.106;2023-08-30T07:51:27;98999.91;;;14.10;100.00
74960;BME280;63518;49.572;1.106;2023-08-30T07:53:54;98973.09;;;13.62;100.00
74960;BME280;63518;49.572;1.106;2023-08-30T07:56:22;99047.59;;;13.90;100.00
74960;BME280;63518;49.572;1.106;2023-08-30T07:58:49;98995.66;;;13.38;100.00
74960;BME280;63518;49.572;1.106;2023-08-30T08:01:16;99043.00;;;13.68;100.00
74960;BME280;63518;49.572;1.106;2023-08-30T08:03:43;99042.03;;;13.81;100.00
74960;BME280;63518;49.572;1.106;2023-08-30T08:06:30;99040.34;;;14.11;100.00
74960;BME280;63518;49.572;1.106;2023-08-30T08:08:57;99042.84;;;14.47;100.00
74960;BME280;63518;49.572;1.106;2023-08-30T08:11:25;99053.28;;;14.41;100.00
74960;BME280;63518;49.572;1.106;2023-08-30T08:13:52;99047.88;;;14.19;100.00
74960;BME280;63518;49.572;1.106;2023-08-30T08:16:19;99063.72;;;14.36;100.00
74960;BME280;63518;49.572;1.106;2023-08-30T08:18:47;99054.09;;;14.42;100.00
74960;BME280;63518;49.572;1.106;2023-08-30T08:21:14;99065.38;;;14.54;100.00
74960;BME280;63518;49.572;1.106;2023-08-30T08:23:41;99059.31;;;14.87;100.00
74960;BME280;63518;49.572;1.106;2023-08-30T08:26:08;99049.66;;;14.93;100.00
74960;BME280;63518;49.572;1.106;2023-08-30T08:28:35;99069.09;;;14.41;100.00
74960;BME280;63518;49.572;1.106;2023-08-30T08:31:02;99069.75;;;14.98;100.00
74960;BME280;63518;49.572;1.106;2023-08-30T08:33:29;99054.75;;;14.65;100.00
74960;BME280;63518;49.572;1.106;2023-08-30T08:35:56;99040.41;;;14.63;100.00
74960;BME280;63518;49.572;1.106;2023-08-30T08:38:23;99056.56;;;14.69;100.00
74960;BME280;63518;49.572;1.106;2023-08-30T08:40:53;99065.69;;;14.70;100.00
74960;BME280;63518;49.572;1.106;2023-08-30T08:43:28;99055.91;;;14.73;100.00
74960;BME280;63518;49.572;1.106;2023-08-30T08:46:01;99068.47;;;14.79;100.00
74960;BME280;63518;49.572;1.106;2023-08-30T08:48:31;99070.72;;;15.03;100.00
74960;BME280;63518;49.572;1.106;2023-08-30T08:51:00;99072.84;;;14.97;100.00
74960;BME280;63518;49.572;1.106;2023-08-30T08:53:27;99079.38;;;14.66;100.00
74960;BME280;63518;49.572;1.106;2023-08-30T08:55:56;99077.75;;;14.39;100.00
74960;BME280;63518;49.572;1.106;2023-08-30T08:58:25;99077.88;;;14.17;100.00
74960;BME280;63518;49.572;1.106;2023-08-30T09:00:52;99068.13;;;14.46;100.00
74960;BME280;63518;49.572;1.106;2023-08-30T09:03:21;99100.28;;;14.90;100.00
74960;BME280;63518;49.572;1.106;2023-08-30T09:05:49;99087.22;;;14.56;100.00
74960;BME280;63518;49.572;1.106;2023-08-30T09:08:17;99077.75;;;14.83;100.00
74960;BME280;63518;49.572;1.106;2023-08-30T09:10:44;99078.56;;;15.01;100.00
74960;BME280;63518;49.572;1.106;2023-08-30T09:13:12;99067.22;;;15.49;100.00
74960;BME280;63518;49.572;1.106;2023-08-30T09:15:39;99081.31;;;15.01;100.00
74960;BME280;63518;49.572;1.106;2023-08-30T09:18:17;99087.22;;;15.25;100.00
74960;BME280;63518;49.572;1.106;2023-08-30T09:20:44;99081.81;;;15.11;100.00
74960;BME280;63518;49.572;1.106;2023-08-30T09:23:21;99071.69;;;15.24;100.00
74960;BME280;63518;49.572;1.106;2023-08-30T09:25:54;99086.22;;;15.30;100.00
74960;BME280;63518;49.572;1.106;2023-08-30T09:28:21;99074.31;;;15.12;100.00
74960;BME280;63518;49.572;1.106;2023-08-30T09:30:52;99081.34;;;14.92;100.00
74960;BME280;63518;49.572;1.106;2023-08-30T09:33:29;99082.34;;;14.79;100.00
74960;BME280;63518;49.572;1.106;2023-08-30T09:35:57;99080.66;;;15.30;100.00
74960;BME280;63518;49.572;1.106;2023-08-30T09:38:26;99069.91;;;16.34;100.00
74960;BME280;63518;49.572;1.106;2023-08-30T09:41:03;99064.69;;;16.03;100.00
74960;BME280;63518;49.572;1.106;2023-08-30T09:43:35;99062.31;;;15.46;100.00
74960;BME280;63518;49.572;1.106;2023-08-30T09:46:05;99058.84;;;16.25;100.00
74960;BME280;63518;49.572;1.106;2023-08-30T09:48:32;99070.16;;;15.91;100.00
74960;BME280;63518;49.572;1.106;2023-08-30T09:51:03;99071.00;;;15.44;100.00
74960;BME280;63518;49.572;1.106;2023-08-30T09:53:33;99064.03;;;15.68;100.00
74960;BME280;63518;49.572;1.106;2023-08-30T09:56:18;99062.22;;;15.72;100.00
74960;BME280;63518;49.572;1.106;2023-08-30T09:58:46;99049.06;;;15.51;100.00
74960;BME280;63518;49.572;1.106;2023-08-30T10:01:13;99068.34;;;15.57;100.00
74960;BME280;63518;49.572;1.106;2023-08-30T10:03:40;99065.34;;;16.00;100.00
74960;BME280;63518;49.572;1.106;2023-08-30T10:06:09;99056.31;;;16.12;100.00
74960;BME280;63518;49.572;1.106;2023-08-30T10:08:37;99052.59;;;15.69;100.00
74960;BME280;63518;49.572;1.106;2023-08-30T10:11:06;99052.81;;;15.56;100.00
74960;BME280;63518;49.572;1.106;2023-08-30T10:13:35;99046.56;;;15.67;100.00
74960;BME280;63518;49.572;1.106;2023-08-30T10:16:02;99044.47;;;15.94;100.00
74960;BME280;63518;49.572;1.106;2023-08-30T10:18:33;99040.16;;;16.05;100.00
74960;BME280;63518;49.572;1.106;2023-08-30T10:21:03;99040.00;;;16.01;100.00
74960;BME280;63518;49.572;1.106;2023-08-30T10:23:35;99042.97;;;16.26;100.00
74960;BME280;63518;49.572;1.106;2023-08-30T10:26:03;99040.75;;;16.40;100.00
74960;BME280;63518;49.572;1.106;2023-08-30T10:28:32;99030.25;;;16.16;100.00
74960;BME280;63518;49.572;1.106;2023-08-30T10:31:00;99051.03;;;15.51;100.00
74960;BME280;63518;49.572;1.106;2023-08-30T10:33:27;99045.28;;;15.56;100.00
74960;BME280;63518;49.572;1.106;2023-08-30T10:36:04;99063.56;;;15.19;100.00
74960;BME280;63518;49.572;1.106;2023-08-30T10:38:32;99069.72;;;15.24;100.00
74960;BME280;63518;49.572;1.106;2023-08-30T10:41:09;99070.41;;;15.04;100.00
74960;BME280;63518;49.572;1.106;2023-08-30T10:43:36;99073.00;;;15.18;100.00
74960;BME280;63518;49.572;1.106;2023-08-30T10:46:05;99076.47;;;14.89;100.00
74960;BME280;63518;49.572;1.106;2023-08-30T10:48:40;99057.69;;;14.77;100.00
74960;BME280;63518;49.572;1.106;2023-08-30T10:51:41;99060.94;;;14.96;100.00
74960;BME280;63518;49.572;1.106;2023-08-30T10:54:15;99071.94;;;15.57;100.00
74960;BME280;63518;49.572;1.106;2023-08-30T10:59:18;99060.31;;;16.52;100.00
74960;BME280;63518;49.572;1.106;2023-08-30T11:01:46;99044.22;;;16.37;100.00
74960;BME280;63518;49.572;1.106;2023-08-30T11:04:15;99052.66;;;16.20;100.00
74960;BME280;63518;49.572;1.106;2023-08-30T11:06:43;99059.31;;;16.90;100.00
74960;BME280;63518;49.572;1.106;2023-08-30T11:09:16;99054.63;;;16.70;100.00
74960;BME280;63518;49.572;1.106;2023-08-30T11:11:47;99035.66;;;16.42;100.00
74960;BME280;63518;49.572;1.106;2023-08-30T11:14:16;99044.94;;;16.25;100.00
74960;BME280;63518;49.572;1.106;2023-08-30T11:16:43;99057.84;;;16.00;100.00
74960;BME280;63518;49.572;1.106;2023-08-30T11:19:11;99054.13;;;16.17;100.00
74960;BME280;63518;49.572;1.106;2023-08-30T11:21:45;99045.72;;;16.76;100.00
74960;BME280;63518;49.572;1.106;2023-08-30T11:24:12;99050.22;;;17.23;100.00
74960;BME280;63518;49.572;1.106;2023-08-30T11:26:40;99041.63;;;17.28;100.00
74960;BME280;63518;49.572;1.106;2023-08-30T11:29:08;99035.63;;;17.50;100.00
74960;BME280;63518;49.572;1.106;2023-08-30T11:31:35;99027.44;;;17.78;100.00
74960;BME280;63518;49.572;1.106;2023-08-30T11:34:02;99042.03;;;17.51;100.00
74960;BME280;63518;49.572;1.106;2023-08-30T11:36:31;99035.31;;;17.76;100.00
74960;BME280;63518;49.572;1.106;2023-08-30T11:38:59;99035.53;;;17.83;100.00
74960;BME280;63518;49.572;1.106;2023-08-30T11:41:26;99037.06;;;18.29;100.00
74960;BME280;63518;49.572;1.106;2023-08-30T11:43:53;99042.63;;;17.81;100.00
74960;BME280;63518;49.572;1.106;2023-08-30T11:46:21;99027.50;;;17.33;100.00
74960;BME280;63518;49.572;1.106;2023-08-30T11:48:49;99044.69;;;17.14;100.00
74960;BME280;63518;49.572;1.106;2023-08-30T11:51:18;99051.75;;;17.44;100.00
74960;BME280;63518;49.572;1.106;2023-08-30T11:53:46;99050.94;;;17.32;100.00
74960;BME280;63518;49.572;1.106;2023-08-30T11:56:13;99038.44;;;17.74;100.00
74960;BME280;63518;49.572;1.106;2023-08-30T11:58:40;99043.28;;;16.75;100.00
74960;BME280;63518;49.572;1.106;2023-08-30T12:01:07;99058.69;;;17.26;100.00
74960;BME280;63518;49.572;1.106;2023-08-30T12:03:34;99052.50;;;17.21;100.00
74960;BME280;63518;49.572;1.106;2023-08-30T12:06:02;99061.38;;;17.35;100.00
74960;BME280;63518;49.572;1.106;2023-08-30T12:08:31;99050.75;;;16.62;100.00
74960;BME280;63518;49.572;1.106;2023-08-30T12:10:58;99047.53;;;16.93;100.00
74960;BME280;63518;49.572;1.106;2023-08-30T12:13:26;99035.56;;;16.92;100.00
74960;BME280;63518;49.572;1.106;2023-08-30T12:15:55;99061.09;;;16.95;100.00
74960;BME280;63518;49.572;1.106;2023-08-30T12:18:26;99041.31;;;17.41;100.00
74960;BME280;63518;49.572;1.106;2023-08-30T12:20:59;99045.53;;;17.84;100.00
74960;BME280;63518;49.572;1.106;2023-08-30T12:23:28;99048.69;;;18.07;100.00
74960;BME280;63518;49.572;1.106;2023-08-30T12:26:09;99051.34;;;17.22;100.00
74960;BME280;63518;49.572;1.106;2023-08-30T12:28:38;99048.00;;;16.32;100.00
74960;BME280;63518;49.572;1.106;2023-08-30T12:31:05;99052.75;;;16.74;100.00
74960;BME280;63518;49.572;1.106;2023-08-30T12:33:34;99044.00;;;16.42;100.00
74960;BME280;63518;49.572;1.106;2023-08-30T12:36:01;99061.56;;;16.97;100.00
74960;BME280;63518;49.572;1.106;2023-08-30T12:38:29;99064.72;;;18.22;100.00
74960;BME280;63518;49.572;1.106;2023-08-30T12:40:56;99041.81;;;18.81;100.00
74960;BME280;63518;49.572;1.106;2023-08-30T12:43:23;99054.81;;;18.90;100.00
74960;BME280;63518;49.572;1.106;2023-08-30T12:45:50;99053.56;;;19.15;100.00
74960;BME280;63518;49.572;1.106;2023-08-30T12:48:18;99049.84;;;18.71;100.00
74960;BME280;63518;49.572;1.106;2023-08-30T12:50:46;99033.59;;;18.73;100.00
74960;BME280;63518;49.572;1.106;2023-08-30T12:53:14;99052.53;;;18.67;100.00
74960;BME280;63518;49.572;1.106;2023-08-30T12:55:44;99057.59;;;18.00;100.00
74960;BME280;63518;49.572;1.106;2023-08-30T12:58:11;99055.56;;;17.28;100.00
74960;BME280;63518;49.572;1.106;2023-08-30T13:00:38;99037.31;;;16.97;100.00
74960;BME280;63518;49.572;1.106;2023-08-30T13:03:05;99059.13;;;16.95;100.00